RYR9MA LOWW-LBSF
Flight info
| Callsign | RYR9MA |
|---|---|
| Flight time | 1h 14m |
| Altitude | 33000 |
| Route | ARSIN1B/16 ARSIN DCT NALOX DCT BABIT DCT RAVAK DCT NISVA |
| Aircraft | A320/M-SDE3FGHIRWY/LB1 |
Departure
| Time | 2026-05-07 14:49 |
|---|---|
| Airport | Vienna International Airport (LOWW) |
Arrival
| Time | 2026-05-07 16:03 |
|---|---|
| Airport | Sofia Airport (LBSF) |
| Time | Latitude | Longitude | Altitude | Speed | Heading |
|---|---|---|---|---|---|
| 2026-05-07 14:27 | 48.11658 | 16.56955 | 622 ft | 0 kts | 26° |
| 2026-05-07 14:39 | 48.11649 | 16.56948 | 609 ft | 4 kts | 29° |
| 2026-05-07 14:40 | 48.11626 | 16.56926 | 625 ft | 4 kts | 43° |
| 2026-05-07 14:40 | 48.11609 | 16.56896 | 625 ft | 4 kts | 62° |
| 2026-05-07 14:40 | 48.11601 | 16.56860 | 615 ft | 4 kts | 99° |
| 2026-05-07 14:40 | 48.11603 | 16.56846 | 625 ft | 0 kts | 116° |
| 2026-05-07 14:43 | 48.11590 | 16.56885 | 620 ft | 8 kts | 117° |
| 2026-05-07 14:43 | 48.11558 | 16.56982 | 617 ft | 11 kts | 116° |
| 2026-05-07 14:44 | 48.11526 | 16.57080 | 616 ft | 10 kts | 116° |
| 2026-05-07 14:44 | 48.11499 | 16.57164 | 620 ft | 8 kts | 116° |
| 2026-05-07 14:44 | 48.11475 | 16.57237 | 612 ft | 7 kts | 116° |
| 2026-05-07 14:44 | 48.11455 | 16.57299 | 622 ft | 7 kts | 116° |
| 2026-05-07 14:45 | 48.11439 | 16.57402 | 609 ft | 14 kts | 72° |
| 2026-05-07 14:45 | 48.11511 | 16.57478 | 616 ft | 12 kts | 28° |
| 2026-05-07 14:45 | 48.11580 | 16.57535 | 615 ft | 11 kts | 28° |
| 2026-05-07 14:45 | 48.11647 | 16.57540 | 613 ft | 9 kts | 344° |
| 2026-05-07 14:46 | 48.11703 | 16.57516 | 613 ft | 8 kts | 344° |
| 2026-05-07 14:46 | 48.11751 | 16.57495 | 622 ft | 7 kts | 344° |
| 2026-05-07 14:46 | 48.11805 | 16.57490 | 609 ft | 12 kts | 21° |
| 2026-05-07 14:46 | 48.11843 | 16.57587 | 613 ft | 10 kts | 73° |
| 2026-05-07 14:47 | 48.11859 | 16.57685 | 609 ft | 9 kts | 81° |
| 2026-05-07 14:47 | 48.11859 | 16.57745 | 615 ft | 8 kts | 98° |
| 2026-05-07 14:47 | 48.11842 | 16.57817 | 620 ft | 7 kts | 117° |
| 2026-05-07 14:47 | 48.11821 | 16.57874 | 613 ft | 6 kts | 121° |
| 2026-05-07 14:48 | 48.11792 | 16.57897 | 612 ft | 4 kts | 165° |
| 2026-05-07 14:48 | 48.11788 | 16.57899 | 614 ft | 0 kts | 164° |
| 2026-05-07 14:48 | 48.11544 | 16.58001 | 618 ft | 74 kts | 164° |
| 2026-05-07 14:48 | 48.10843 | 16.58296 | 619 ft | 133 kts | 164° |
| 2026-05-07 14:49 | 48.09800 | 16.58734 | 722 ft | 166 kts | 167° |
| 2026-05-07 14:49 | 48.08710 | 16.59196 | 1371 ft | 169 kts | 165° |
| 2026-05-07 14:49 | 48.07539 | 16.59723 | 1901 ft | 182 kts | 163° |
| 2026-05-07 14:49 | 48.06273 | 16.60337 | 2339 ft | 201 kts | 162° |
| 2026-05-07 14:50 | 48.04882 | 16.61031 | 2817 ft | 220 kts | 162° |
| 2026-05-07 14:50 | 48.03379 | 16.61778 | 3426 ft | 234 kts | 163° |
| 2026-05-07 14:50 | 48.01754 | 16.62444 | 4020 ft | 251 kts | 167° |
| 2026-05-07 14:50 | 47.99977 | 16.62879 | 4657 ft | 266 kts | 174° |
| 2026-05-07 14:51 | 47.98099 | 16.63148 | 5401 ft | 276 kts | 175° |
| 2026-05-07 14:51 | 47.96158 | 16.63362 | 6169 ft | 284 kts | 180° |
| 2026-05-07 14:51 | 47.94165 | 16.63272 | 6986 ft | 285 kts | 183° |
| 2026-05-07 14:51 | 47.92211 | 16.63126 | 8096 ft | 279 kts | 184° |
| 2026-05-07 14:52 | 47.90266 | 16.62972 | 9003 ft | 281 kts | 184° |
| 2026-05-07 14:52 | 47.88303 | 16.62820 | 9866 ft | 284 kts | 184° |
| 2026-05-07 14:52 | 47.86290 | 16.62670 | 10380 ft | 299 kts | 184° |
| 2026-05-07 14:52 | 47.84129 | 16.62517 | 10617 ft | 323 kts | 184° |
| 2026-05-07 14:53 | 47.81841 | 16.62367 | 11109 ft | 334 kts | 184° |
| 2026-05-07 14:53 | 47.79505 | 16.62224 | 11831 ft | 338 kts | 184° |
| 2026-05-07 14:53 | 47.77147 | 16.62208 | 12586 ft | 342 kts | 177° |
| 2026-05-07 14:53 | 47.74790 | 16.62861 | 13348 ft | 348 kts | 165° |
| 2026-05-07 14:54 | 47.72528 | 16.64233 | 14036 ft | 354 kts | 157° |
| 2026-05-07 14:54 | 47.70302 | 16.65814 | 14721 ft | 355 kts | 158° |
| 2026-05-07 14:54 | 47.68067 | 16.67395 | 15430 ft | 356 kts | 158° |
| 2026-05-07 14:54 | 47.65826 | 16.68977 | 16125 ft | 357 kts | 159° |
| 2026-05-07 14:55 | 47.63575 | 16.70563 | 16821 ft | 358 kts | 159° |
| 2026-05-07 14:55 | 47.61319 | 16.72148 | 17505 ft | 360 kts | 159° |
| 2026-05-07 14:55 | 47.59055 | 16.73732 | 18201 ft | 361 kts | 160° |
| 2026-05-07 14:55 | 47.56718 | 16.75015 | 18778 ft | 357 kts | 170° |
| 2026-05-07 14:56 | 47.54279 | 16.75602 | 19340 ft | 355 kts | 180° |
| 2026-05-07 14:56 | 47.51840 | 16.75826 | 19896 ft | 357 kts | 180° |
| 2026-05-07 14:56 | 47.49353 | 16.76058 | 20449 ft | 359 kts | 180° |
| 2026-05-07 14:56 | 47.46850 | 16.76295 | 20984 ft | 362 kts | 180° |
| 2026-05-07 14:57 | 47.44321 | 16.76542 | 21527 ft | 365 kts | 180° |
| 2026-05-07 14:57 | 47.41775 | 16.76793 | 22050 ft | 368 kts | 180° |
| 2026-05-07 14:57 | 47.39206 | 16.77045 | 22564 ft | 371 kts | 180° |
| 2026-05-07 14:57 | 47.36615 | 16.77294 | 23060 ft | 375 kts | 180° |
| 2026-05-07 14:58 | 47.34005 | 16.77540 | 23535 ft | 378 kts | 180° |
| 2026-05-07 14:58 | 47.31376 | 16.77791 | 23950 ft | 380 kts | 180° |
| 2026-05-07 14:58 | 47.28727 | 16.78044 | 24373 ft | 382 kts | 180° |
| 2026-05-07 14:58 | 47.26082 | 16.78296 | 24804 ft | 383 kts | 180° |
| 2026-05-07 14:59 | 47.23410 | 16.78551 | 25226 ft | 384 kts | 180° |
| 2026-05-07 14:59 | 47.20743 | 16.78805 | 25620 ft | 385 kts | 180° |
| 2026-05-07 14:59 | 47.18059 | 16.79057 | 26022 ft | 387 kts | 180° |
| 2026-05-07 14:59 | 47.15371 | 16.79308 | 26413 ft | 388 kts | 180° |
| 2026-05-07 15:00 | 47.12674 | 16.79563 | 26801 ft | 389 kts | 180° |
| 2026-05-07 15:00 | 47.09970 | 16.79821 | 27186 ft | 391 kts | 180° |
| 2026-05-07 15:00 | 47.07255 | 16.80079 | 27550 ft | 392 kts | 180° |
| 2026-05-07 15:00 | 47.04526 | 16.80337 | 27918 ft | 393 kts | 181° |
| 2026-05-07 15:01 | 47.01790 | 16.80595 | 28290 ft | 394 kts | 181° |
| 2026-05-07 15:01 | 46.99047 | 16.80856 | 28639 ft | 396 kts | 181° |
| 2026-05-07 15:01 | 46.96294 | 16.81119 | 28991 ft | 397 kts | 181° |
| 2026-05-07 15:01 | 46.93532 | 16.81388 | 29320 ft | 399 kts | 179° |
| 2026-05-07 15:02 | 46.90782 | 16.82128 | 29628 ft | 408 kts | 168° |
| 2026-05-07 15:02 | 46.88134 | 16.83751 | 29917 ft | 419 kts | 157° |
| 2026-05-07 15:02 | 46.85727 | 16.86258 | 30181 ft | 432 kts | 144° |
| 2026-05-07 15:02 | 46.83704 | 16.89591 | 30401 ft | 447 kts | 131° |
| 2026-05-07 15:03 | 46.82026 | 16.93450 | 30604 ft | 452 kts | 129° |
| 2026-05-07 15:03 | 46.80360 | 16.97358 | 30804 ft | 454 kts | 129° |
| 2026-05-07 15:03 | 46.78686 | 17.01278 | 31024 ft | 455 kts | 129° |
| 2026-05-07 15:03 | 46.77012 | 17.05189 | 31312 ft | 455 kts | 129° |
| 2026-05-07 15:04 | 46.75330 | 17.09098 | 31597 ft | 454 kts | 129° |
| 2026-05-07 15:04 | 46.73643 | 17.12992 | 31871 ft | 454 kts | 129° |
| 2026-05-07 15:04 | 46.71956 | 17.16872 | 32158 ft | 454 kts | 129° |
| 2026-05-07 15:04 | 46.70265 | 17.20761 | 32440 ft | 453 kts | 129° |
| 2026-05-07 15:05 | 46.68580 | 17.24632 | 32726 ft | 453 kts | 129° |
| 2026-05-07 15:05 | 46.66892 | 17.28506 | 33011 ft | 452 kts | 129° |
| 2026-05-07 15:05 | 46.65209 | 17.32369 | 33306 ft | 452 kts | 129° |
| 2026-05-07 15:05 | 46.63528 | 17.36229 | 33608 ft | 451 kts | 129° |
| 2026-05-07 15:06 | 46.61849 | 17.40074 | 33914 ft | 450 kts | 129° |
| 2026-05-07 15:06 | 46.60170 | 17.43905 | 34179 ft | 449 kts | 130° |
| 2026-05-07 15:06 | 46.58491 | 17.47734 | 34419 ft | 449 kts | 129° |
| 2026-05-07 15:06 | 46.56831 | 17.51514 | 34619 ft | 450 kts | 129° |
| 2026-05-07 15:07 | 46.55149 | 17.55347 | 34822 ft | 450 kts | 129° |
| 2026-05-07 15:07 | 46.53461 | 17.59186 | 34968 ft | 451 kts | 129° |
| 2026-05-07 15:07 | 46.50092 | 17.66839 | 35002 ft | 449 kts | 129° |
| 2026-05-07 15:08 | 46.46729 | 17.74451 | 35004 ft | 448 kts | 129° |
| 2026-05-07 15:08 | 46.43355 | 17.82056 | 35002 ft | 448 kts | 129° |
| 2026-05-07 15:09 | 46.39983 | 17.89645 | 35008 ft | 448 kts | 129° |
| 2026-05-07 15:09 | 46.36602 | 17.97220 | 35006 ft | 448 kts | 129° |
| 2026-05-07 15:10 | 46.33213 | 18.04793 | 35002 ft | 448 kts | 129° |
| 2026-05-07 15:10 | 46.29820 | 18.12352 | 35003 ft | 448 kts | 129° |
| 2026-05-07 15:11 | 46.26427 | 18.19918 | 35002 ft | 448 kts | 129° |
| 2026-05-07 15:11 | 46.23026 | 18.27467 | 35001 ft | 449 kts | 129° |
| 2026-05-07 15:12 | 46.19614 | 18.35023 | 34999 ft | 449 kts | 129° |
| 2026-05-07 15:12 | 46.16200 | 18.42577 | 35002 ft | 450 kts | 129° |
| 2026-05-07 15:13 | 46.12772 | 18.50126 | 34997 ft | 450 kts | 129° |
| 2026-05-07 15:13 | 46.09329 | 18.57666 | 34995 ft | 450 kts | 129° |
| 2026-05-07 15:14 | 46.05884 | 18.65201 | 34995 ft | 451 kts | 129° |
| 2026-05-07 15:14 | 46.02440 | 18.72742 | 34996 ft | 451 kts | 129° |
| 2026-05-07 15:15 | 45.98981 | 18.80273 | 34993 ft | 451 kts | 129° |
| 2026-05-07 15:15 | 45.95510 | 18.87808 | 34994 ft | 452 kts | 129° |
| 2026-05-07 15:16 | 45.91659 | 18.94824 | 34997 ft | 442 kts | 142° |
| 2026-05-07 15:16 | 45.87055 | 19.00636 | 35000 ft | 441 kts | 144° |
| 2026-05-07 15:17 | 45.82475 | 19.06400 | 34997 ft | 441 kts | 144° |
| 2026-05-07 15:17 | 45.77841 | 19.12255 | 34999 ft | 441 kts | 144° |
| 2026-05-07 15:18 | 45.73229 | 19.18066 | 35006 ft | 442 kts | 143° |
| 2026-05-07 15:18 | 45.68610 | 19.23863 | 35005 ft | 441 kts | 144° |
| 2026-05-07 15:19 | 45.64017 | 19.29597 | 34999 ft | 441 kts | 144° |
| 2026-05-07 15:19 | 45.59389 | 19.35360 | 35003 ft | 441 kts | 144° |
| 2026-05-07 15:20 | 45.54764 | 19.41116 | 35003 ft | 441 kts | 143° |
| 2026-05-07 15:20 | 45.50140 | 19.46873 | 35002 ft | 441 kts | 143° |
| 2026-05-07 15:21 | 45.45511 | 19.52617 | 35002 ft | 441 kts | 143° |
| 2026-05-07 15:21 | 45.40882 | 19.58350 | 35000 ft | 441 kts | 143° |
| 2026-05-07 15:22 | 45.36248 | 19.64082 | 35001 ft | 441 kts | 143° |
| 2026-05-07 15:22 | 45.31606 | 19.69805 | 34999 ft | 442 kts | 144° |
| 2026-05-07 15:23 | 45.26946 | 19.75517 | 34999 ft | 442 kts | 144° |
| 2026-05-07 15:23 | 45.22289 | 19.81228 | 35000 ft | 443 kts | 143° |
| 2026-05-07 15:24 | 45.17630 | 19.86941 | 35003 ft | 443 kts | 143° |
| 2026-05-07 15:24 | 45.12958 | 19.92642 | 35010 ft | 443 kts | 143° |
| 2026-05-07 15:25 | 45.08283 | 19.98337 | 35014 ft | 443 kts | 143° |
| 2026-05-07 15:25 | 45.03606 | 20.04015 | 35016 ft | 443 kts | 143° |
| 2026-05-07 15:26 | 44.98929 | 20.09689 | 35017 ft | 443 kts | 143° |
| 2026-05-07 15:26 | 44.94251 | 20.15361 | 35015 ft | 443 kts | 143° |
| 2026-05-07 15:27 | 44.89568 | 20.21012 | 35013 ft | 443 kts | 143° |
| 2026-05-07 15:27 | 44.84878 | 20.26654 | 35012 ft | 443 kts | 143° |
| 2026-05-07 15:28 | 44.80185 | 20.32290 | 35015 ft | 444 kts | 143° |
| 2026-05-07 15:28 | 44.75515 | 20.37886 | 35013 ft | 444 kts | 143° |
| 2026-05-07 15:29 | 44.70811 | 20.43517 | 35007 ft | 444 kts | 143° |
| 2026-05-07 15:29 | 44.66108 | 20.49138 | 35017 ft | 444 kts | 143° |
| 2026-05-07 15:30 | 44.61404 | 20.54755 | 35015 ft | 444 kts | 143° |
| 2026-05-07 15:30 | 44.56685 | 20.60368 | 35030 ft | 445 kts | 144° |
| 2026-05-07 15:31 | 44.51966 | 20.65955 | 35026 ft | 444 kts | 144° |
| 2026-05-07 15:31 | 44.47245 | 20.71532 | 35012 ft | 444 kts | 144° |
| 2026-05-07 15:32 | 44.42532 | 20.77100 | 35023 ft | 444 kts | 144° |
| 2026-05-07 15:32 | 44.37808 | 20.82667 | 35028 ft | 444 kts | 144° |
| 2026-05-07 15:33 | 44.33087 | 20.88213 | 35035 ft | 444 kts | 144° |
| 2026-05-07 15:33 | 44.28363 | 20.93754 | 35035 ft | 443 kts | 144° |
| 2026-05-07 15:34 | 44.24435 | 20.98356 | 35038 ft | 443 kts | 144° |
| 2026-05-07 15:34 | 44.19715 | 21.03879 | 35040 ft | 443 kts | 144° |
| 2026-05-07 15:35 | 44.15008 | 21.09381 | 35040 ft | 442 kts | 144° |
| 2026-05-07 15:35 | 44.10285 | 21.14878 | 35041 ft | 442 kts | 144° |
| 2026-05-07 15:36 | 44.05566 | 21.20349 | 35039 ft | 442 kts | 144° |
| 2026-05-07 15:36 | 44.00843 | 21.25817 | 35041 ft | 442 kts | 144° |
| 2026-05-07 15:37 | 43.96122 | 21.31277 | 35043 ft | 441 kts | 144° |
| 2026-05-07 15:37 | 43.91403 | 21.36715 | 35045 ft | 441 kts | 144° |
| 2026-05-07 15:38 | 43.86683 | 21.42144 | 35049 ft | 441 kts | 144° |
| 2026-05-07 15:38 | 43.81961 | 21.47569 | 35052 ft | 441 kts | 144° |
| 2026-05-07 15:39 | 43.77247 | 21.52979 | 35050 ft | 440 kts | 144° |
| 2026-05-07 15:39 | 43.72524 | 21.58370 | 35051 ft | 440 kts | 144° |
| 2026-05-07 15:40 | 43.67946 | 21.64021 | 35049 ft | 445 kts | 135° |
| 2026-05-07 15:40 | 43.63999 | 21.70639 | 35047 ft | 446 kts | 134° |
| 2026-05-07 15:41 | 43.60034 | 21.77236 | 35050 ft | 447 kts | 134° |
| 2026-05-07 15:41 | 43.56053 | 21.83825 | 35050 ft | 447 kts | 134° |
| 2026-05-07 15:42 | 43.52081 | 21.90406 | 35050 ft | 447 kts | 134° |
| 2026-05-07 15:42 | 43.48110 | 21.96977 | 35045 ft | 447 kts | 134° |
| 2026-05-07 15:43 | 43.44131 | 22.03547 | 34477 ft | 445 kts | 134° |
| 2026-05-07 15:43 | 43.42148 | 22.06812 | 33772 ft | 444 kts | 134° |
| 2026-05-07 15:43 | 43.40167 | 22.10066 | 32954 ft | 444 kts | 134° |
| 2026-05-07 15:44 | 43.38183 | 22.13324 | 32249 ft | 443 kts | 134° |
| 2026-05-07 15:44 | 43.36214 | 22.16562 | 31652 ft | 440 kts | 134° |
| 2026-05-07 15:44 | 43.34259 | 22.19781 | 31062 ft | 438 kts | 134° |
| 2026-05-07 15:44 | 43.32309 | 22.22981 | 30496 ft | 435 kts | 134° |
| 2026-05-07 15:45 | 43.30367 | 22.26157 | 29909 ft | 433 kts | 134° |
| 2026-05-07 15:45 | 43.28436 | 22.29306 | 29298 ft | 430 kts | 134° |
| 2026-05-07 15:45 | 43.26537 | 22.32396 | 28663 ft | 428 kts | 134° |
| 2026-05-07 15:45 | 43.24594 | 22.35553 | 28011 ft | 427 kts | 134° |
| 2026-05-07 15:46 | 43.20779 | 22.41756 | 26776 ft | 424 kts | 133° |
| 2026-05-07 15:46 | 43.18887 | 22.44839 | 26180 ft | 422 kts | 133° |
| 2026-05-07 15:46 | 43.17001 | 22.47911 | 25589 ft | 420 kts | 133° |
| 2026-05-07 15:47 | 43.15120 | 22.50969 | 25016 ft | 419 kts | 133° |
| 2026-05-07 15:47 | 43.13269 | 22.53975 | 24462 ft | 418 kts | 133° |
| 2026-05-07 15:47 | 43.11373 | 22.57048 | 23897 ft | 417 kts | 133° |
| 2026-05-07 15:47 | 43.09522 | 22.60038 | 23301 ft | 416 kts | 133° |
| 2026-05-07 15:48 | 43.07652 | 22.63053 | 22658 ft | 416 kts | 133° |
| 2026-05-07 15:48 | 43.05758 | 22.66101 | 22018 ft | 415 kts | 133° |
| 2026-05-07 15:48 | 43.03890 | 22.69110 | 21401 ft | 414 kts | 133° |
| 2026-05-07 15:48 | 43.02027 | 22.72113 | 20799 ft | 414 kts | 133° |
| 2026-05-07 15:49 | 43.00164 | 22.75111 | 20218 ft | 413 kts | 133° |
| 2026-05-07 15:49 | 42.98319 | 22.78075 | 19625 ft | 406 kts | 133° |
| 2026-05-07 15:49 | 42.96519 | 22.80969 | 19051 ft | 393 kts | 133° |
| 2026-05-07 15:49 | 42.94796 | 22.83728 | 18505 ft | 381 kts | 133° |
| 2026-05-07 15:50 | 42.93090 | 22.86448 | 17889 ft | 374 kts | 133° |
| 2026-05-07 15:50 | 42.91395 | 22.89145 | 17255 ft | 376 kts | 133° |
| 2026-05-07 15:50 | 42.89686 | 22.91862 | 16649 ft | 378 kts | 133° |
| 2026-05-07 15:50 | 42.87973 | 22.94584 | 16045 ft | 379 kts | 133° |
| 2026-05-07 15:51 | 42.86254 | 22.97312 | 15454 ft | 380 kts | 133° |
| 2026-05-07 15:51 | 42.84533 | 23.00041 | 14873 ft | 380 kts | 133° |
| 2026-05-07 15:51 | 42.82811 | 23.02770 | 14305 ft | 379 kts | 133° |
| 2026-05-07 15:51 | 42.81097 | 23.05485 | 13723 ft | 378 kts | 133° |
| 2026-05-07 15:52 | 42.79386 | 23.08194 | 13087 ft | 377 kts | 133° |
| 2026-05-07 15:52 | 42.77680 | 23.10891 | 12474 ft | 374 kts | 133° |
| 2026-05-07 15:52 | 42.75986 | 23.13565 | 11869 ft | 372 kts | 133° |
| 2026-05-07 15:52 | 42.74300 | 23.16226 | 11273 ft | 370 kts | 133° |
| 2026-05-07 15:53 | 42.72636 | 23.18848 | 10874 ft | 362 kts | 133° |
| 2026-05-07 15:53 | 42.71014 | 23.21411 | 10534 ft | 353 kts | 133° |
| 2026-05-07 15:53 | 42.69428 | 23.23915 | 10199 ft | 346 kts | 133° |
| 2026-05-07 15:53 | 42.67875 | 23.26360 | 9853 ft | 338 kts | 133° |
| 2026-05-07 15:54 | 42.66351 | 23.28758 | 9492 ft | 332 kts | 133° |
| 2026-05-07 15:54 | 42.64854 | 23.31113 | 9121 ft | 326 kts | 133° |
| 2026-05-07 15:54 | 42.63388 | 23.33423 | 8855 ft | 318 kts | 131° |
| 2026-05-07 15:54 | 42.62219 | 23.35883 | 8835 ft | 303 kts | 117° |
| 2026-05-07 15:55 | 42.61551 | 23.38522 | 8839 ft | 289 kts | 103° |
| 2026-05-07 15:55 | 42.61320 | 23.41165 | 8837 ft | 275 kts | 96° |
| 2026-05-07 15:55 | 42.61171 | 23.43680 | 8822 ft | 260 kts | 96° |
| 2026-05-07 15:55 | 42.61028 | 23.46084 | 8829 ft | 252 kts | 96° |
| 2026-05-07 15:56 | 42.60889 | 23.48380 | 8710 ft | 238 kts | 96° |
| 2026-05-07 15:56 | 42.60752 | 23.50569 | 8495 ft | 228 kts | 97° |
| 2026-05-07 15:56 | 42.60622 | 23.52679 | 8283 ft | 219 kts | 96° |
| 2026-05-07 15:56 | 42.60500 | 23.54687 | 8153 ft | 208 kts | 97° |
| 2026-05-07 15:57 | 42.60382 | 23.56592 | 7945 ft | 200 kts | 97° |
| 2026-05-07 15:57 | 42.60266 | 23.58446 | 7617 ft | 195 kts | 97° |
| 2026-05-07 15:57 | 42.60154 | 23.60268 | 7267 ft | 191 kts | 96° |
| 2026-05-07 15:57 | 42.60192 | 23.62046 | 6927 ft | 188 kts | 78° |
| 2026-05-07 15:58 | 42.60749 | 23.63625 | 6588 ft | 185 kts | 52° |
| 2026-05-07 15:58 | 42.61718 | 23.64730 | 6240 ft | 181 kts | 27° |
| 2026-05-07 15:58 | 42.62902 | 23.65210 | 5881 ft | 177 kts | 4° |
| 2026-05-07 15:58 | 42.64119 | 23.65342 | 5534 ft | 174 kts | 3° |
| 2026-05-07 15:59 | 42.65322 | 23.65455 | 5170 ft | 173 kts | 358° |
| 2026-05-07 15:59 | 42.66494 | 23.65115 | 4821 ft | 170 kts | 335° |
| 2026-05-07 15:59 | 42.67433 | 23.64276 | 4648 ft | 156 kts | 314° |
| 2026-05-07 15:59 | 42.68073 | 23.63137 | 4499 ft | 150 kts | 295° |
| 2026-05-07 16:00 | 42.68403 | 23.61815 | 4330 ft | 147 kts | 277° |
| 2026-05-07 16:00 | 42.68497 | 23.60437 | 4153 ft | 146 kts | 273° |
| 2026-05-07 16:00 | 42.68584 | 23.59063 | 3965 ft | 146 kts | 273° |
| 2026-05-07 16:00 | 42.68669 | 23.57688 | 3772 ft | 146 kts | 272° |
| 2026-05-07 16:01 | 42.68755 | 23.56310 | 3583 ft | 146 kts | 273° |
| 2026-05-07 16:01 | 42.68840 | 23.54931 | 3383 ft | 147 kts | 274° |
| 2026-05-07 16:01 | 42.68925 | 23.53546 | 3182 ft | 147 kts | 275° |
| 2026-05-07 16:01 | 42.69010 | 23.52160 | 2982 ft | 148 kts | 275° |
| 2026-05-07 16:02 | 42.69096 | 23.50765 | 2779 ft | 148 kts | 276° |
| 2026-05-07 16:02 | 42.69181 | 23.49373 | 2574 ft | 148 kts | 277° |
| 2026-05-07 16:02 | 42.69265 | 23.47994 | 2373 ft | 145 kts | 276° |
| 2026-05-07 16:02 | 42.69348 | 23.46631 | 2189 ft | 144 kts | 276° |
| 2026-05-07 16:03 | 42.69429 | 23.45303 | 1988 ft | 142 kts | 276° |
| 2026-05-07 16:03 | 42.69511 | 23.43974 | 1802 ft | 141 kts | 277° |
| 2026-05-07 16:03 | 42.69587 | 23.42763 | 1752 ft | 99 kts | 274° |
| 2026-05-07 16:03 | 42.69620 | 23.42224 | 1744 ft | 29 kts | 274° |
| 2026-05-07 16:04 | 42.69633 | 23.41984 | 1748 ft | 24 kts | 274° |
| 2026-05-07 16:04 | 42.69632 | 23.41753 | 1748 ft | 25 kts | 258° |
| 2026-05-07 16:04 | 42.69584 | 23.41560 | 1748 ft | 16 kts | 245° |
| 2026-05-07 16:04 | 42.69533 | 23.41414 | 1746 ft | 18 kts | 245° |
| 2026-05-07 16:05 | 42.69493 | 23.41292 | 1743 ft | 12 kts | 251° |
| 2026-05-07 16:05 | 42.69452 | 23.41215 | 1748 ft | 11 kts | 209° |
| 2026-05-07 16:05 | 42.69376 | 23.41190 | 1750 ft | 12 kts | 192° |
| 2026-05-07 16:05 | 42.69295 | 23.41165 | 1746 ft | 12 kts | 192° |
| 2026-05-07 16:06 | 42.69217 | 23.41143 | 1750 ft | 11 kts | 191° |
| 2026-05-07 16:06 | 42.69148 | 23.41116 | 1750 ft | 10 kts | 209° |
| 2026-05-07 16:06 | 42.69116 | 23.41043 | 1748 ft | 9 kts | 252° |
| 2026-05-07 16:06 | 42.69101 | 23.40984 | 1744 ft | 5 kts | 246° |
| 2026-05-07 16:07 | 42.69076 | 23.40971 | 1748 ft | 3 kts | 168° |
| 2026-05-07 16:07 | 42.69058 | 23.40980 | 1744 ft | 3 kts | 160° |
| 2026-05-07 16:07 | 42.69043 | 23.40988 | 1748 ft | 2 kts | 160° |
| 2026-05-07 16:07 | 42.69032 | 23.40993 | 1743 ft | 2 kts | 161° |
| 2026-05-07 16:08 | 42.69013 | 23.41001 | 1744 ft | 3 kts | 162° |
| 2026-05-07 16:08 | 42.69010 | 23.41002 | 1745 ft | 0 kts | 162° |